createdAt,value
2017-12-28T00:00:51.006Z,1.28
2017-12-28T00:01:51.011Z,1.32
2017-12-28T00:02:51.043Z,1.27
2017-12-28T00:03:51.042Z,1.25
2017-12-28T00:04:51.051Z,1.39
2017-12-28T00:05:51.069Z,1.34
2017-12-28T00:06:51.069Z,1.43
2017-12-28T00:07:51.082Z,1.36
2017-12-28T00:08:51.102Z,1.27
2017-12-28T00:09:51.113Z,1.27
2017-12-28T00:10:51.123Z,1.36
2017-12-28T00:11:51.129Z,1.34
2017-12-28T00:12:51.144Z,1.36
2017-12-28T00:13:51.144Z,1.39
2017-12-28T00:14:51.169Z,1.43
2017-12-28T00:15:51.181Z,1.25
2017-12-28T00:16:51.187Z,1.27
2017-12-28T00:17:51.204Z,1.32
2017-12-28T00:18:51.207Z,1.32
2017-12-28T00:19:51.232Z,1.30
2017-12-28T00:20:51.234Z,1.25
2017-12-28T00:21:51.245Z,1.39
2017-12-28T00:22:51.259Z,1.42
2017-12-28T00:23:51.556Z,1.34
2017-12-28T00:24:51.266Z,1.32
2017-12-28T00:25:51.290Z,1.27
2017-12-28T00:26:51.295Z,1.39
2017-12-28T00:27:51.317Z,1.36
2017-12-28T00:28:51.325Z,1.34
2017-12-28T00:29:51.323Z,1.36
2017-12-28T00:30:51.349Z,1.36
2017-12-28T00:31:51.353Z,1.34
2017-12-28T00:32:51.363Z,1.34
2017-12-28T00:33:51.380Z,1.39
2017-12-28T00:34:51.380Z,1.32
2017-12-28T00:35:51.393Z,1.39
2017-12-28T00:36:51.414Z,1.32
2017-12-28T00:37:51.418Z,1.38
2017-12-28T00:38:51.437Z,1.45
2017-12-28T00:39:51.436Z,1.40
2017-12-28T00:40:51.452Z,1.42
2017-12-28T00:41:51.478Z,1.36
2017-12-28T00:42:51.476Z,1.36
2017-12-28T00:43:51.489Z,1.48
2017-12-28T00:44:51.498Z,1.36
2017-12-28T00:45:51.502Z,1.36
2017-12-28T00:46:51.535Z,1.34
2017-12-28T00:47:51.534Z,1.38
2017-12-28T00:48:51.542Z,1.31
2017-12-28T00:49:51.561Z,1.38
2017-12-28T00:50:51.560Z,1.40
2017-12-28T00:51:51.573Z,1.36
2017-12-28T00:52:51.612Z,1.31
2017-12-28T00:53:51.597Z,1.28
2017-12-28T00:54:51.612Z,1.34
2017-12-28T00:55:51.617Z,1.30
2017-12-28T00:56:51.637Z,1.36
2017-12-28T00:57:51.657Z,1.43
2017-12-28T00:58:51.655Z,1.34
2017-12-28T00:59:51.669Z,1.36
2017-12-28T01:00:51.677Z,1.25
2017-12-28T01:01:51.702Z,1.36
2017-12-28T01:02:51.714Z,1.31
2017-12-28T01:03:51.711Z,1.25
2017-12-28T01:04:51.720Z,1.38
2017-12-28T01:05:51.734Z,1.32
2017-12-28T01:06:51.739Z,1.24
2017-12-28T01:07:51.759Z,1.42
2017-12-28T01:08:51.768Z,1.31
2017-12-28T01:09:51.779Z,1.34
2017-12-28T01:10:51.798Z,1.31
2017-12-28T01:11:51.801Z,1.42
2017-12-28T01:12:51.805Z,1.36
2017-12-28T01:13:51.818Z,1.31
2017-12-28T01:14:51.842Z,1.39
2017-12-28T01:15:51.848Z,1.32
2017-12-28T01:16:51.864Z,1.30
2017-12-28T01:17:51.861Z,1.31
2017-12-28T01:18:51.882Z,1.49
2017-12-28T01:19:51.892Z,1.36
2017-12-28T01:20:51.900Z,1.31
2017-12-28T01:21:51.914Z,1.42
2017-12-28T01:22:51.920Z,1.49
2017-12-28T01:23:51.939Z,1.46
2017-12-28T01:24:51.948Z,1.49
2017-12-28T01:25:51.957Z,1.48
2017-12-28T01:26:51.970Z,1.49
2017-12-28T01:27:51.975Z,1.53
2017-12-28T01:28:51.991Z,1.49
2017-12-28T01:29:52.005Z,1.58
2017-12-28T01:30:52.016Z,1.49
2017-12-28T01:31:52.034Z,1.53
2017-12-28T01:32:52.037Z,1.53
2017-12-28T01:33:52.041Z,1.56
2017-12-28T01:34:52.055Z,1.68
2017-12-28T01:35:52.084Z,1.56
2017-12-28T01:36:52.080Z,1.57
2017-12-28T01:37:52.104Z,1.56
2017-12-28T01:38:52.104Z,1.61
2017-12-28T01:39:52.119Z,1.63
2017-12-28T01:40:52.133Z,1.64
2017-12-28T01:41:52.137Z,1.67
2017-12-28T01:42:52.150Z,1.64
2017-12-28T01:43:52.456Z,1.71
2017-12-28T01:44:52.171Z,1.64
2017-12-28T01:45:52.194Z,1.68
2017-12-28T01:46:52.196Z,1.67
2017-12-28T01:47:52.207Z,1.71
2017-12-28T01:48:52.216Z,1.70
2017-12-28T01:49:52.227Z,1.58
2017-12-28T01:50:52.247Z,1.67
2017-12-28T01:51:52.250Z,1.70
2017-12-28T01:52:52.260Z,1.68
2017-12-28T01:53:52.273Z,1.70
2017-12-28T01:54:52.282Z,1.68
2017-12-28T01:55:52.304Z,1.74
2017-12-28T01:56:52.324Z,1.71
2017-12-28T01:57:52.316Z,1.75
2017-12-28T01:58:52.330Z,1.70
2017-12-28T01:59:52.360Z,1.78
2017-12-28T02:00:52.356Z,1.71
2017-12-28T02:01:52.371Z,1.75
2017-12-28T02:02:52.384Z,1.68
2017-12-28T02:03:52.695Z,1.75
2017-12-28T02:04:52.414Z,1.81
2017-12-28T02:05:52.419Z,1.78
2017-12-28T02:06:52.433Z,1.75
2017-12-28T02:07:52.438Z,1.79
2017-12-28T02:08:52.447Z,1.84
2017-12-28T02:09:52.465Z,1.81
2017-12-28T02:10:52.470Z,1.88
2017-12-28T02:11:52.489Z,1.88
2017-12-28T02:12:52.492Z,1.82
2017-12-28T02:13:52.504Z,1.89
2017-12-28T02:14:52.531Z,1.98
2017-12-28T02:15:52.535Z,1.92
2017-12-28T02:16:52.536Z,1.93
2017-12-28T02:17:52.549Z,1.95
2017-12-28T02:18:52.877Z,2.03
2017-12-28T02:19:52.576Z,2.01
2017-12-28T02:20:52.584Z,1.93
2017-12-28T02:21:52.597Z,2.00
2017-12-28T02:22:52.634Z,2.12
2017-12-28T02:23:52.634Z,1.98
2017-12-28T02:24:52.643Z,2.03
2017-12-28T02:25:52.642Z,2.05
2017-12-28T02:26:52.672Z,2.10
2017-12-28T02:27:52.672Z,2.08
2017-12-28T02:28:52.686Z,2.07
2017-12-28T02:29:52.700Z,2.04
2017-12-28T02:30:52.710Z,2.14
2017-12-28T02:31:52.724Z,2.15
2017-12-28T02:32:52.733Z,2.12
2017-12-28T02:33:52.751Z,2.25
2017-12-28T02:34:52.753Z,2.25
2017-12-28T02:35:52.775Z,2.22
2017-12-28T02:36:52.783Z,2.16
2017-12-28T02:37:52.790Z,2.18
2017-12-28T02:38:52.814Z,2.26
2017-12-28T02:39:52.841Z,2.36
2017-12-28T02:40:52.829Z,2.30
2017-12-28T02:41:52.833Z,2.40
2017-12-28T02:42:52.859Z,2.36
2017-12-28T02:43:53.171Z,2.37
2017-12-28T02:44:52.879Z,2.36
2017-12-28T02:45:52.887Z,2.39
2017-12-28T02:46:52.902Z,2.43
2017-12-28T02:47:52.923Z,2.41
2017-12-28T02:48:52.929Z,2.43
2017-12-28T02:49:52.933Z,2.50
2017-12-28T02:50:52.960Z,2.52
2017-12-28T02:51:52.967Z,2.52
2017-12-28T02:52:52.969Z,2.55
2017-12-28T02:53:52.995Z,2.54
2017-12-28T02:54:52.999Z,2.52
2017-12-28T02:55:53.013Z,2.54
2017-12-28T02:56:53.028Z,2.62
2017-12-28T02:57:53.039Z,2.57
2017-12-28T02:58:53.058Z,2.55
2017-12-28T02:59:53.062Z,2.65
2017-12-28T03:00:53.088Z,2.64
2017-12-28T03:01:53.097Z,2.59
2017-12-28T03:02:53.115Z,2.59
2017-12-28T03:03:53.110Z,2.65
2017-12-28T03:04:53.130Z,2.64
2017-12-28T03:05:53.140Z,2.62
2017-12-28T03:06:53.148Z,2.64
2017-12-28T03:07:53.154Z,2.69
2017-12-28T03:08:53.480Z,2.68
2017-12-28T03:09:53.193Z,2.72
2017-12-28T03:10:53.191Z,2.73
2017-12-28T03:11:53.230Z,2.73
2017-12-28T03:12:53.226Z,2.68
2017-12-28T03:13:53.231Z,2.73
2017-12-28T03:14:53.244Z,2.75
2017-12-28T03:15:53.268Z,2.73
2017-12-28T03:16:53.292Z,2.76
2017-12-28T03:17:53.283Z,2.73
2017-12-28T03:18:53.289Z,2.77
2017-12-28T03:19:53.332Z,2.75
2017-12-28T03:20:53.327Z,2.83
2017-12-28T03:21:53.327Z,2.83
2017-12-28T03:22:53.359Z,2.80
2017-12-28T03:23:53.363Z,2.80
2017-12-28T03:24:53.372Z,2.80
2017-12-28T03:25:53.380Z,2.87
2017-12-28T03:26:53.403Z,2.83
2017-12-28T03:27:53.416Z,2.82
2017-12-28T03:28:53.425Z,2.90
2017-12-28T03:29:53.434Z,2.85
2017-12-28T03:30:53.454Z,2.82
2017-12-28T03:31:53.454Z,2.79
2017-12-28T03:32:53.462Z,2.87
2017-12-28T03:33:53.494Z,2.77
2017-12-28T03:34:53.497Z,2.87
2017-12-28T03:35:53.506Z,2.83
2017-12-28T03:36:53.526Z,2.83
2017-12-28T03:37:53.539Z,2.85
2017-12-28T03:38:53.551Z,2.83
2017-12-28T03:39:53.582Z,2.80
2017-12-28T03:40:53.577Z,2.83
2017-12-28T03:41:53.583Z,2.82
2017-12-28T03:42:53.595Z,2.87
2017-12-28T03:43:53.913Z,2.80
2017-12-28T03:44:53.626Z,2.88
2017-12-28T03:45:53.635Z,2.85
2017-12-28T03:46:53.641Z,2.91
2017-12-28T03:47:53.665Z,2.88
2017-12-28T03:48:53.667Z,2.80
2017-12-28T03:49:53.680Z,2.83
2017-12-28T03:50:53.704Z,2.85
2017-12-28T03:51:53.716Z,2.85
2017-12-28T03:52:53.726Z,2.90
2017-12-28T03:53:53.742Z,2.88
2017-12-28T03:54:53.756Z,2.88
2017-12-28T03:55:53.754Z,2.85
2017-12-28T03:56:53.769Z,2.82
2017-12-28T03:57:53.795Z,2.88
2017-12-28T03:58:53.793Z,2.93
2017-12-28T03:59:53.806Z,2.88
2017-12-28T04:00:53.826Z,2.83
2017-12-28T04:01:53.852Z,2.87
2017-12-28T04:02:53.846Z,2.88
2017-12-28T04:03:53.850Z,2.87
2017-12-28T04:04:53.877Z,2.83
2017-12-28T04:05:53.885Z,2.83
2017-12-28T04:06:53.890Z,2.79
2017-12-28T04:07:53.921Z,2.83
2017-12-28T04:08:53.924Z,2.87
2017-12-28T04:09:53.936Z,2.83
2017-12-28T04:10:53.948Z,2.87
2017-12-28T04:11:53.965Z,2.82
2017-12-28T04:12:53.967Z,2.83
2017-12-28T04:13:54.280Z,2.83
2017-12-28T04:14:53.987Z,2.82
2017-12-28T04:15:54.018Z,2.82
2017-12-28T04:16:54.021Z,2.88
2017-12-28T04:17:54.030Z,2.82
2017-12-28T04:18:54.358Z,2.88
2017-12-28T04:19:54.060Z,2.85
2017-12-28T04:20:54.070Z,2.83
2017-12-28T04:21:54.077Z,2.80
2017-12-28T04:22:54.103Z,2.88
2017-12-28T04:23:54.106Z,2.83
2017-12-28T04:24:54.116Z,2.91
2017-12-28T04:25:54.140Z,2.87
2017-12-28T04:26:54.142Z,2.91
2017-12-28T04:27:54.165Z,2.88
2017-12-28T04:28:54.163Z,2.97
2017-12-28T04:29:54.180Z,2.93
2017-12-28T04:30:54.195Z,2.90
2017-12-28T04:31:54.199Z,2.91
2017-12-28T04:32:54.219Z,2.94
2017-12-28T04:33:54.239Z,2.98
2017-12-28T04:34:54.238Z,3.01
2017-12-28T04:35:54.250Z,2.95
2017-12-28T04:36:54.273Z,2.95
2017-12-28T04:37:54.277Z,2.94
2017-12-28T04:38:54.297Z,2.91
2017-12-28T04:39:54.296Z,2.94
2017-12-28T04:40:54.322Z,2.85
2017-12-28T04:41:54.330Z,2.91
2017-12-28T04:42:54.340Z,2.83
2017-12-28T04:43:54.367Z,2.93
2017-12-28T04:44:54.369Z,2.83
2017-12-28T04:45:54.380Z,2.95
2017-12-28T04:46:54.395Z,2.98
2017-12-28T04:47:54.403Z,2.94
2017-12-28T04:48:54.713Z,3.00
2017-12-28T04:49:54.425Z,2.91
2017-12-28T04:50:54.450Z,2.95
2017-12-28T04:51:54.455Z,2.97
2017-12-28T04:52:54.471Z,3.00
2017-12-28T04:53:54.471Z,2.87
2017-12-28T04:54:54.503Z,2.98
2017-12-28T04:55:54.506Z,2.88
2017-12-28T04:56:54.509Z,3.01
2017-12-28T04:57:54.533Z,3.03
2017-12-28T04:58:54.838Z,3.01
2017-12-28T04:59:54.551Z,3.05
2017-12-28T05:00:54.580Z,3.05
2017-12-28T05:01:54.585Z,3.05
2017-12-28T05:02:54.595Z,3.05
2017-12-28T05:03:54.603Z,3.08
2017-12-28T05:04:54.621Z,3.03
2017-12-28T05:05:54.630Z,3.03
2017-12-28T05:06:54.641Z,3.00
2017-12-28T05:07:54.666Z,3.08
2017-12-28T05:08:54.676Z,3.06
2017-12-28T05:09:54.674Z,3.08
2017-12-28T05:10:54.696Z,3.08
2017-12-28T05:11:54.704Z,3.06
2017-12-28T05:12:54.716Z,3.09
2017-12-28T05:13:54.726Z,3.01
2017-12-28T05:14:54.743Z,3.12
2017-12-28T05:15:54.762Z,3.09
2017-12-28T05:16:54.765Z,3.08
2017-12-28T05:17:54.785Z,3.03
2017-12-28T05:18:54.796Z,3.09
2017-12-28T05:19:54.800Z,3.11
2017-12-28T05:20:54.809Z,3.12
2017-12-28T05:21:54.841Z,3.01
2017-12-28T05:22:54.839Z,3.11
2017-12-28T05:23:54.859Z,3.05
2017-12-28T05:24:54.874Z,3.13
2017-12-28T05:25:54.879Z,3.09
2017-12-28T05:26:54.897Z,3.05
2017-12-28T05:27:54.905Z,3.03
2017-12-28T05:28:54.917Z,3.06
2017-12-28T05:29:54.933Z,3.05
2017-12-28T05:30:54.953Z,3.03
2017-12-28T05:31:54.960Z,3.03
2017-12-28T05:32:54.982Z,3.16
2017-12-28T05:33:55.282Z,3.09
2017-12-28T05:34:55.019Z,3.11
2017-12-28T05:35:55.006Z,3.16
2017-12-28T05:36:55.015Z,3.06
2017-12-28T05:37:55.028Z,3.03
2017-12-28T05:38:55.045Z,3.16
2017-12-28T05:39:55.070Z,3.06
2017-12-28T05:40:55.068Z,3.09
2017-12-28T05:41:55.090Z,3.09
2017-12-28T05:42:55.097Z,3.15
2017-12-28T05:43:55.113Z,3.08
2017-12-28T05:44:55.111Z,3.03
2017-12-28T05:45:55.142Z,3.05
2017-12-28T05:46:55.141Z,3.11
2017-12-28T05:47:55.162Z,3.12
2017-12-28T05:48:55.174Z,3.12
2017-12-28T05:49:55.186Z,3.08
2017-12-28T05:50:55.192Z,3.06
2017-12-28T05:51:55.199Z,3.05
2017-12-28T05:52:55.226Z,3.09
2017-12-28T05:53:55.231Z,3.01
2017-12-28T05:54:55.244Z,3.01
2017-12-28T05:55:55.262Z,3.08
2017-12-28T05:56:55.270Z,3.06
2017-12-28T05:57:55.285Z,3.05
2017-12-28T05:58:55.607Z,3.06
2017-12-28T05:59:55.305Z,3.06
2017-12-28T06:00:55.322Z,3.09
2017-12-28T06:01:55.328Z,3.11
2017-12-28T06:02:55.352Z,3.09
2017-12-28T06:03:55.358Z,3.03
2017-12-28T06:04:55.367Z,3.05
2017-12-28T06:05:55.372Z,3.05
2017-12-28T06:06:55.404Z,3.09
2017-12-28T06:07:55.402Z,3.12
2017-12-28T06:08:55.411Z,3.05
2017-12-28T06:09:55.436Z,3.11
2017-12-28T06:10:55.442Z,3.11
2017-12-28T06:11:55.454Z,3.11
2017-12-28T06:12:55.464Z,3.12
2017-12-28T06:13:55.482Z,3.06
2017-12-28T06:14:55.493Z,3.12
2017-12-28T06:15:55.505Z,3.06
2017-12-28T06:16:55.528Z,3.12
2017-12-28T06:17:55.532Z,3.13
2017-12-28T06:18:55.838Z,3.13
2017-12-28T06:19:55.576Z,3.13
2017-12-28T06:20:55.571Z,3.12
2017-12-28T06:21:55.577Z,3.08
2017-12-28T06:22:55.602Z,3.12
2017-12-28T06:23:55.607Z,3.16
2017-12-28T06:24:55.635Z,3.11
2017-12-28T06:25:55.636Z,3.16
2017-12-28T06:26:55.645Z,3.19
2017-12-28T06:27:55.658Z,3.13
2017-12-28T06:28:55.687Z,3.13
2017-12-28T06:29:55.692Z,3.19
2017-12-28T06:30:55.699Z,3.18
2017-12-28T06:31:55.704Z,3.24
2017-12-28T06:32:55.719Z,3.21
2017-12-28T06:33:55.741Z,3.19
2017-12-28T06:34:55.747Z,3.19
2017-12-28T06:35:55.759Z,3.21
2017-12-28T06:36:55.772Z,3.26
2017-12-28T06:37:55.785Z,3.24
2017-12-28T06:38:55.789Z,3.26
2017-12-28T06:39:55.818Z,3.29
2017-12-28T06:40:55.825Z,3.34
2017-12-28T06:41:55.829Z,3.30
2017-12-28T06:42:55.856Z,3.27
2017-12-28T06:43:55.860Z,3.31
2017-12-28T06:44:55.869Z,3.29
2017-12-28T06:45:55.882Z,3.29
2017-12-28T06:46:55.906Z,3.27
2017-12-28T06:47:55.912Z,3.24
2017-12-28T06:48:55.927Z,3.26
2017-12-28T06:49:55.939Z,3.24
2017-12-28T06:50:55.950Z,3.30
2017-12-28T06:51:55.962Z,3.33
2017-12-28T06:52:55.977Z,3.27
2017-12-28T06:53:55.990Z,3.34
2017-12-28T06:54:55.995Z,3.26
2017-12-28T06:55:56.016Z,3.40
2017-12-28T06:56:56.036Z,3.40
2017-12-28T06:57:56.040Z,3.33
2017-12-28T06:58:56.047Z,3.37
2017-12-28T06:59:56.064Z,3.41
2017-12-28T07:00:56.081Z,3.48
2017-12-28T07:01:56.092Z,3.36
2017-12-28T07:02:56.104Z,3.41
2017-12-28T07:03:56.417Z,3.40
2017-12-28T07:04:56.138Z,3.45
2017-12-28T07:05:56.142Z,3.45
2017-12-28T07:06:56.157Z,3.37
2017-12-28T07:07:56.160Z,3.41
2017-12-28T07:08:56.177Z,3.45
2017-12-28T07:09:56.196Z,3.41
2017-12-28T07:10:56.206Z,3.41
2017-12-28T07:11:56.220Z,3.52
2017-12-28T07:12:56.240Z,3.46
2017-12-28T07:13:56.247Z,3.41
2017-12-28T07:14:56.257Z,3.46
2017-12-28T07:15:56.270Z,3.45
2017-12-28T07:16:56.285Z,3.48
2017-12-28T07:17:56.298Z,3.43
2017-12-28T07:18:56.312Z,3.55
2017-12-28T07:19:56.322Z,3.48
2017-12-28T07:20:56.334Z,3.52
2017-12-28T07:21:56.336Z,3.46
2017-12-28T07:22:56.366Z,3.45
2017-12-28T07:23:56.665Z,3.49
2017-12-28T07:24:56.374Z,3.49
2017-12-28T07:25:56.406Z,3.48
2017-12-28T07:26:56.407Z,3.46
2017-12-28T07:27:56.417Z,3.49
2017-12-28T07:28:56.446Z,3.50
2017-12-28T07:29:56.450Z,3.49
2017-12-28T07:30:56.465Z,3.49
2017-12-28T07:31:56.473Z,3.50
2017-12-28T07:32:56.489Z,3.48
2017-12-28T07:33:56.496Z,3.52
2017-12-28T07:34:56.513Z,3.50
2017-12-28T07:35:56.527Z,3.52
2017-12-28T07:36:56.536Z,3.52
2017-12-28T07:37:56.559Z,3.52
2017-12-28T07:38:56.566Z,3.50
2017-12-28T07:39:56.570Z,3.52
2017-12-28T07:40:56.579Z,3.55
2017-12-28T07:41:56.611Z,3.52
2017-12-28T07:42:56.616Z,3.50
2017-12-28T07:43:56.624Z,3.48
2017-12-28T07:44:56.644Z,3.59
2017-12-28T07:45:56.667Z,3.53
2017-12-28T07:46:56.661Z,3.58
2017-12-28T07:47:56.679Z,3.58
2017-12-28T07:48:56.988Z,3.48
2017-12-28T07:49:56.706Z,3.64
2017-12-28T07:50:56.718Z,3.61
2017-12-28T07:51:56.738Z,3.66
2017-12-28T07:52:56.740Z,3.67
2017-12-28T07:53:56.764Z,3.66
2017-12-28T07:54:56.777Z,3.63
2017-12-28T07:55:56.781Z,3.67
2017-12-28T07:56:56.796Z,3.61
2017-12-28T07:57:56.810Z,3.63
2017-12-28T07:58:56.822Z,3.63
2017-12-28T07:59:56.840Z,3.59
2017-12-28T08:00:56.847Z,3.63
2017-12-28T08:01:56.853Z,3.71
2017-12-28T08:02:56.889Z,3.73
2017-12-28T08:03:57.184Z,3.67
2017-12-28T08:04:56.899Z,3.82
2017-12-28T08:05:56.925Z,3.81
2017-12-28T08:06:56.928Z,3.84
2017-12-28T08:07:56.954Z,3.77
2017-12-28T08:08:56.946Z,3.85
2017-12-28T08:09:56.973Z,3.82
2017-12-28T08:10:56.975Z,3.88
2017-12-28T08:11:56.980Z,3.82
2017-12-28T08:12:57.000Z,3.88
2017-12-28T08:13:57.021Z,3.89
2017-12-28T08:14:57.019Z,3.91
2017-12-28T08:15:57.053Z,3.92
2017-12-28T08:16:57.052Z,3.91
2017-12-28T08:17:57.088Z,3.86
2017-12-28T08:18:57.083Z,4.06
2017-12-28T08:19:57.089Z,3.95
2017-12-28T08:20:57.098Z,3.95
2017-12-28T08:21:57.147Z,4.03
2017-12-28T08:22:57.128Z,4.00
2017-12-28T08:23:57.441Z,4.00
2017-12-28T08:24:57.169Z,4.00
2017-12-28T08:25:57.167Z,4.07
2017-12-28T08:26:57.179Z,4.06
2017-12-28T08:27:57.196Z,4.00
2017-12-28T08:28:57.207Z,4.03
2017-12-28T08:29:57.220Z,4.07
2017-12-28T08:30:57.245Z,4.02
2017-12-28T08:31:57.249Z,4.07
2017-12-28T08:32:57.257Z,4.16
2017-12-28T08:33:57.284Z,4.12
2017-12-28T08:34:57.288Z,4.12
2017-12-28T08:35:57.306Z,4.12
2017-12-28T08:36:57.315Z,4.20
2017-12-28T08:37:57.334Z,4.12
2017-12-28T08:38:57.338Z,4.13
2017-12-28T08:39:57.365Z,4.16
2017-12-28T08:40:57.367Z,4.14
2017-12-28T08:41:57.372Z,4.21
2017-12-28T08:42:57.392Z,4.14
2017-12-28T08:43:57.413Z,4.24
2017-12-28T08:44:57.421Z,4.24
2017-12-28T08:45:57.432Z,4.24
2017-12-28T08:46:57.445Z,4.25
2017-12-28T08:47:57.458Z,4.27
2017-12-28T08:48:57.478Z,4.22
2017-12-28T08:49:57.484Z,4.30
2017-12-28T08:50:57.491Z,4.30
2017-12-28T08:51:57.514Z,4.30
2017-12-28T08:52:57.523Z,4.31
2017-12-28T08:53:57.546Z,4.30
2017-12-28T08:54:57.554Z,4.24
2017-12-28T08:55:57.564Z,4.31
2017-12-28T08:56:57.587Z,4.27
2017-12-28T08:57:57.612Z,4.27
2017-12-28T08:58:57.598Z,4.27
2017-12-28T08:59:57.624Z,4.28
2017-12-28T09:00:57.639Z,4.24
2017-12-28T09:01:57.637Z,4.28
2017-12-28T09:02:57.671Z,4.20
2017-12-28T09:03:57.967Z,4.20
2017-12-28T09:04:57.676Z,4.22
2017-12-28T09:05:57.701Z,4.28
2017-12-28T09:06:57.707Z,4.30
2017-12-28T09:07:57.737Z,4.24
2017-12-28T09:08:57.740Z,4.30
2017-12-28T09:09:57.753Z,4.22
2017-12-28T09:10:57.770Z,4.31
2017-12-28T09:11:57.782Z,4.34
2017-12-28T09:12:57.790Z,4.25
2017-12-28T09:13:57.816Z,4.36
2017-12-28T09:14:57.816Z,4.32
2017-12-28T09:15:57.829Z,4.31
2017-12-28T09:16:57.848Z,4.25
2017-12-28T09:17:57.861Z,4.36
2017-12-28T09:18:57.874Z,4.34
2017-12-28T09:19:57.896Z,4.34
2017-12-28T09:20:57.894Z,4.32
2017-12-28T09:21:57.913Z,4.32
2017-12-28T09:22:57.924Z,4.34
2017-12-28T09:23:57.937Z,4.39
2017-12-28T09:24:57.964Z,4.36
2017-12-28T09:25:57.968Z,4.34
2017-12-28T09:26:57.975Z,4.40
2017-12-28T09:27:57.999Z,4.39
2017-12-28T09:28:58.021Z,4.39
2017-12-28T09:29:58.023Z,4.43
2017-12-28T09:30:58.038Z,4.43
2017-12-28T09:31:58.044Z,4.43
2017-12-28T09:32:58.056Z,4.43
2017-12-28T09:33:58.072Z,4.42
2017-12-28T09:34:58.085Z,4.43
2017-12-28T09:35:58.101Z,4.48
2017-12-28T09:36:58.117Z,4.43
2017-12-28T09:37:58.124Z,4.46
2017-12-28T09:38:58.448Z,4.48
2017-12-28T09:39:58.161Z,4.50
2017-12-28T09:40:58.170Z,4.46
2017-12-28T09:41:58.180Z,4.50
2017-12-28T09:42:58.195Z,4.50
2017-12-28T09:43:58.217Z,4.52
2017-12-28T09:44:58.218Z,4.58
2017-12-28T09:45:58.239Z,4.58
2017-12-28T09:46:58.257Z,4.58
2017-12-28T09:47:58.263Z,4.63
2017-12-28T09:48:58.290Z,4.53
2017-12-28T09:49:58.289Z,4.60
2017-12-28T09:50:58.307Z,4.64
2017-12-28T09:51:58.318Z,4.63
2017-12-28T09:52:58.328Z,4.63
2017-12-28T09:53:58.359Z,4.58
2017-12-28T09:54:58.365Z,4.71
2017-12-28T09:55:58.377Z,4.74
2017-12-28T09:56:58.399Z,4.71
2017-12-28T09:57:58.398Z,4.66
2017-12-28T09:58:58.429Z,4.76
2017-12-28T09:59:58.434Z,4.74
2017-12-28T10:00:58.455Z,4.75
2017-12-28T10:01:58.469Z,4.76
2017-12-28T10:02:58.466Z,4.76
2017-12-28T10:03:58.492Z,4.79
2017-12-28T10:04:58.500Z,4.83
2017-12-28T10:05:58.505Z,4.84
2017-12-28T10:06:58.533Z,4.79
2017-12-28T10:07:58.536Z,4.87
2017-12-28T10:08:58.563Z,4.92
2017-12-28T10:09:58.583Z,4.90
2017-12-28T10:10:58.576Z,4.84
2017-12-28T10:11:58.601Z,4.89
2017-12-28T10:12:58.616Z,4.92
2017-12-28T10:13:58.627Z,4.94
2017-12-28T10:14:58.639Z,4.95
2017-12-28T10:15:58.645Z,4.90
2017-12-28T10:16:58.666Z,4.90
2017-12-28T10:17:58.680Z,4.94
2017-12-28T10:18:58.696Z,4.97
2017-12-28T10:19:58.716Z,4.97
2017-12-28T10:20:58.737Z,5.08
2017-12-28T10:21:58.735Z,4.92
2017-12-28T10:22:58.750Z,5.01
2017-12-28T10:23:59.072Z,5.04
2017-12-28T10:24:58.775Z,5.01
2017-12-28T10:25:58.801Z,4.94
2017-12-28T10:26:58.804Z,5.04
2017-12-28T10:27:58.830Z,4.98
2017-12-28T10:28:58.839Z,5.02
2017-12-28T10:29:58.845Z,5.02
2017-12-28T10:30:58.877Z,5.05
2017-12-28T10:31:58.874Z,5.01
2017-12-28T10:32:58.895Z,5.04
2017-12-28T10:33:58.916Z,5.08
2017-12-28T10:34:58.920Z,5.02
2017-12-28T10:35:58.939Z,5.05
2017-12-28T10:36:58.951Z,5.12
2017-12-28T10:37:58.965Z,5.08
2017-12-28T10:38:58.985Z,5.01
2017-12-28T10:39:58.995Z,5.08
2017-12-28T10:40:59.011Z,4.98
2017-12-28T10:41:59.018Z,5.05
2017-12-28T10:42:59.041Z,4.98
2017-12-28T10:43:59.048Z,5.02
2017-12-28T10:44:59.069Z,5.04
2017-12-28T10:45:59.075Z,5.12
2017-12-28T10:46:59.089Z,5.12
2017-12-28T10:47:59.103Z,5.07
2017-12-28T10:48:59.119Z,5.02
2017-12-28T10:49:59.146Z,5.02
2017-12-28T10:50:59.147Z,5.13
2017-12-28T10:51:59.166Z,5.07
2017-12-28T10:52:59.174Z,5.01
2017-12-28T10:53:59.187Z,5.02
2017-12-28T10:54:59.204Z,4.97
2017-12-28T10:55:59.216Z,4.97
2017-12-28T10:56:59.237Z,5.04
2017-12-28T10:57:59.243Z,5.02
2017-12-28T10:58:59.263Z,5.05
2017-12-28T10:59:59.278Z,5.07
2017-12-28T11:00:59.283Z,5.02
2017-12-28T11:01:59.307Z,5.10
2017-12-28T11:02:59.320Z,5.12
2017-12-28T11:03:59.338Z,5.05
2017-12-28T11:04:59.354Z,5.04
2017-12-28T11:05:59.351Z,5.05
2017-12-28T11:06:59.384Z,5.02
2017-12-28T11:07:59.388Z,5.08
2017-12-28T11:08:59.448Z,5.04
2017-12-28T11:09:59.416Z,5.12
2017-12-28T11:10:59.427Z,5.04
2017-12-28T11:11:59.447Z,5.15
2017-12-28T11:12:59.456Z,5.07
2017-12-28T11:13:59.473Z,5.05
2017-12-28T11:14:59.492Z,5.05
2017-12-28T11:15:59.498Z,5.13
2017-12-28T11:16:59.513Z,5.08
2017-12-28T11:17:59.525Z,5.16
2017-12-28T11:18:59.542Z,5.15
2017-12-28T11:19:59.560Z,5.16
2017-12-28T11:20:59.564Z,5.15
2017-12-28T11:21:59.582Z,5.16
2017-12-28T11:22:59.594Z,5.22
2017-12-28T11:23:59.618Z,5.25
2017-12-28T11:24:59.626Z,5.23
2017-12-28T11:25:59.647Z,5.28
2017-12-28T11:26:59.650Z,5.18
2017-12-28T11:27:59.664Z,5.22
2017-12-28T11:28:59.696Z,5.18
2017-12-28T11:29:59.690Z,5.20
2017-12-28T11:30:59.715Z,5.23
2017-12-28T11:31:59.720Z,5.20
2017-12-28T11:32:59.730Z,5.25
2017-12-28T11:33:59.754Z,5.25
2017-12-28T11:34:59.785Z,5.31
2017-12-28T11:35:59.792Z,5.25
2017-12-28T11:36:59.800Z,5.29
2017-12-28T11:37:59.818Z,5.28
2017-12-28T11:38:59.832Z,5.20
2017-12-28T11:39:59.831Z,5.28
2017-12-28T11:40:59.857Z,5.29
2017-12-28T11:41:59.862Z,5.28
2017-12-28T11:42:59.887Z,5.28
2017-12-28T11:44:00.194Z,5.25
2017-12-28T11:44:59.914Z,5.25
2017-12-28T11:45:59.919Z,5.29
2017-12-28T11:46:59.940Z,5.28
2017-12-28T11:47:59.949Z,5.26
2017-12-28T11:48:59.959Z,5.34
2017-12-28T11:49:59.992Z,5.33
2017-12-28T11:50:59.996Z,5.25
2017-12-28T11:52:00.030Z,5.29
2017-12-28T11:53:00.034Z,5.28
2017-12-28T11:54:00.031Z,5.25
2017-12-28T11:55:00.061Z,5.25
2017-12-28T11:56:00.060Z,5.20
2017-12-28T11:57:00.087Z,5.22
2017-12-28T11:58:00.093Z,5.23
2017-12-28T11:59:00.405Z,5.23
2017-12-28T12:00:00.126Z,5.28
2017-12-28T12:01:00.135Z,5.22
2017-12-28T12:02:00.150Z,5.26
2017-12-28T12:03:00.169Z,5.28
2017-12-28T12:04:00.179Z,5.22
2017-12-28T12:05:00.195Z,5.28
2017-12-28T12:06:00.209Z,5.22
2017-12-28T12:07:00.225Z,5.23
2017-12-28T12:08:00.231Z,5.23
2017-12-28T12:09:00.253Z,5.28
2017-12-28T12:10:00.257Z,5.25
2017-12-28T12:11:00.272Z,5.33
2017-12-28T12:12:00.288Z,5.34
2017-12-28T12:13:00.305Z,5.28
2017-12-28T12:14:00.323Z,5.31
2017-12-28T12:15:00.333Z,5.34
2017-12-28T12:16:00.352Z,5.33
2017-12-28T12:17:00.369Z,5.33
2017-12-28T12:18:00.374Z,5.33
2017-12-28T12:19:00.393Z,5.31
2017-12-28T12:20:00.406Z,5.43
2017-12-28T12:21:00.418Z,5.36
2017-12-28T12:22:00.432Z,5.34
2017-12-28T12:23:00.437Z,5.36
2017-12-28T12:24:00.474Z,5.38
2017-12-28T12:25:00.476Z,5.34
2017-12-28T12:26:00.487Z,5.34
2017-12-28T12:27:00.500Z,5.37
2017-12-28T12:28:00.518Z,5.34
2017-12-28T12:29:00.527Z,5.29
2017-12-28T12:30:00.550Z,5.28
2017-12-28T12:31:00.558Z,5.31
2017-12-28T12:32:00.570Z,5.26
2017-12-28T12:33:00.594Z,5.26
2017-12-28T12:34:00.597Z,5.29
2017-12-28T12:35:00.628Z,5.33
2017-12-28T12:36:00.633Z,5.36
2017-12-28T12:37:00.641Z,5.28
2017-12-28T12:38:00.671Z,5.26
2017-12-28T12:39:00.665Z,5.28
2017-12-28T12:40:00.692Z,5.29
2017-12-28T12:41:00.701Z,5.25
2017-12-28T12:42:00.704Z,5.22
2017-12-28T12:43:00.730Z,5.25
2017-12-28T12:44:00.735Z,5.34
2017-12-28T12:45:00.757Z,5.28
2017-12-28T12:46:00.769Z,5.29
2017-12-28T12:47:00.782Z,5.29
2017-12-28T12:48:00.800Z,5.34
2017-12-28T12:49:00.815Z,5.33
2017-12-28T12:50:00.825Z,5.29
2017-12-28T12:51:00.845Z,5.29
2017-12-28T12:52:00.845Z,5.33
2017-12-28T12:53:00.870Z,5.34
2017-12-28T12:54:00.902Z,5.36
2017-12-28T12:55:00.896Z,5.36
2017-12-28T12:56:00.908Z,5.28
2017-12-28T12:57:00.943Z,5.31
2017-12-28T12:58:00.936Z,5.36
2017-12-28T12:59:00.949Z,5.36
2017-12-28T13:00:00.972Z,5.36
2017-12-28T13:01:00.974Z,5.36
2017-12-28T13:02:00.999Z,5.41
2017-12-28T13:03:01.005Z,5.29
2017-12-28T13:04:01.036Z,5.36
2017-12-28T13:05:01.048Z,5.34
2017-12-28T13:06:01.043Z,5.34
2017-12-28T13:07:01.068Z,5.34
2017-12-28T13:08:01.074Z,5.36
2017-12-28T13:09:01.094Z,5.33
2017-12-28T13:10:01.108Z,5.44
2017-12-28T13:11:01.125Z,5.38
2017-12-28T13:12:01.138Z,5.38
2017-12-28T13:13:01.148Z,5.31
2017-12-28T13:14:01.170Z,5.40
2017-12-28T13:15:01.247Z,5.40
2017-12-28T13:16:01.201Z,5.41
2017-12-28T13:17:01.210Z,5.34
2017-12-28T13:18:01.216Z,5.36
2017-12-28T13:19:01.234Z,5.41